Terminal Aerodrome Forecast
Issued by NWS

Home | Current Version | Previous Version | Text Only | Print | Product List | Glossary On
Versions: 1 2 3 4 5 6 7 8 9 10 11 12 13 14 15 16 17
824
FTUS43 KTOP 280415 AAA
TAFMHK
TAF AMD
KMHK 280415Z 2804/2824 06003KT P6SM OVC026
     FM281000 07002KT P6SM OVC017
     FM281800 09011KT P6SM BKN025=

USA.gov is the U.S. government's official web portal to all federal, state and local government web resources and services.